Pays
Station

 

Conditions  météo  pour  Luton Airport  -  Royaume-Uni    Royaume-Uni

  
18 °C
    
 
 

METAR pour Luton Airport :

EGGW 180920Z AUTO 20004KT 150V250 9999 NCD 18/11 Q1015

 

Voici le bulletin pour Luton Airport - Royaume-Uni.
 
Le bulletin a été fait il y a 10 minutes, à 09:20 UTC .
Le vent soufflait à la vitesse de 2.1 mètres par seconde de Sud/Sud-ouest (200°), variant entre Sud/Sud-est (150°) et Ouest/Sud-ouest (250°).
 
La température était de 18 °C, avec un point de rosée à 11 °C.
La pression atmosphérique était de 1015 hPa.
L'humidité relative était de 63.6%.
 
La visibilité globale était de supérieure à 10 kilomètres.
 

 
 
 

Pays :   A   B   C   D   E   F   G   H   I   J   K   L   M   N   O   P   Q   R   S   T   U   V   W   Y   Z

 

Partenaires :  Info Météo avec Met'info
Météo Marine avec MeteoMarine.net
Infos Site  |  Infos Légales  |  Crédits  |  Confidentialité
Contactez-nous  |  Ajouter aux favoris
© 2013-2019 METAR - Tous droits réservés